sensor_id;sensor_type;location;lat;lon;timestamp;pressure;altitude;pressure_sealevel;temperature;humidity
17649;BME280;8943;51.110;-4.158;2022-07-17T00:01:10;102036.75;;;23.84;39.80
17649;BME280;8943;51.110;-4.158;2022-07-17T00:03:38;102030.78;;;23.80;39.79
17649;BME280;8943;51.110;-4.158;2022-07-17T00:06:07;102030.78;;;23.80;39.88
17649;BME280;8943;51.110;-4.158;2022-07-17T00:08:35;102040.28;;;23.76;39.51
17649;BME280;8943;51.110;-4.158;2022-07-17T00:11:05;102029.41;;;23.68;39.92
17649;BME280;8943;51.110;-4.158;2022-07-17T00:13:33;102032.97;;;23.69;39.76
17649;BME280;8943;51.110;-4.158;2022-07-17T00:16:02;102036.19;;;23.64;40.00
17649;BME280;8943;51.110;-4.158;2022-07-17T00:18:30;102033.63;;;23.62;39.80
17649;BME280;8943;51.110;-4.158;2022-07-17T00:20:59;102036.84;;;23.58;40.09
17649;BME280;8943;51.110;-4.158;2022-07-17T00:23:27;102040.19;;;23.52;39.91
17649;BME280;8943;51.110;-4.158;2022-07-17T00:25:55;102031.53;;;23.48;39.95
17649;BME280;8943;51.110;-4.158;2022-07-17T00:28:25;102026.44;;;23.45;39.98
17649;BME280;8943;51.110;-4.158;2022-07-17T00:30:53;102024.50;;;23.37;40.13
17649;BME280;8943;51.110;-4.158;2022-07-17T00:33:21;102025.72;;;23.35;40.17
17649;BME280;8943;51.110;-4.158;2022-07-17T00:35:50;102022.31;;;23.33;40.21
17649;BME280;8943;51.110;-4.158;2022-07-17T00:38:19;102015.50;;;23.29;40.49
17649;BME280;8943;51.110;-4.158;2022-07-17T00:40:47;102018.19;;;23.21;40.39
17649;BME280;8943;51.110;-4.158;2022-07-17T00:43:15;102014.44;;;23.13;40.66
17649;BME280;8943;51.110;-4.158;2022-07-17T00:45:45;102014.06;;;23.08;40.70
17649;BME280;8943;51.110;-4.158;2022-07-17T00:48:13;102014.38;;;23.05;40.73
17649;BME280;8943;51.110;-4.158;2022-07-17T00:50:42;102001.75;;;22.96;40.89
17649;BME280;8943;51.110;-4.158;2022-07-17T00:53:10;101996.81;;;22.92;40.78
17649;BME280;8943;51.110;-4.158;2022-07-17T00:55:40;101988.97;;;22.88;41.01
17649;BME280;8943;51.110;-4.158;2022-07-17T00:58:12;101988.44;;;22.85;41.06
17649;BME280;8943;51.110;-4.158;2022-07-17T01:00:46;101988.91;;;22.80;41.03
17649;BME280;8943;51.110;-4.158;2022-07-17T01:03:16;101988.91;;;22.80;41.04
17649;BME280;8943;51.110;-4.158;2022-07-17T01:05:45;101990.94;;;22.78;41.05
17649;BME280;8943;51.110;-4.158;2022-07-17T01:08:13;101989.94;;;22.79;40.88
17649;BME280;8943;51.110;-4.158;2022-07-17T01:10:42;101986.19;;;22.80;40.95
17649;BME280;8943;51.110;-4.158;2022-07-17T01:13:10;101987.22;;;22.79;40.92
17649;BME280;8943;51.110;-4.158;2022-07-17T01:15:40;101979.75;;;22.81;41.13
17649;BME280;8943;51.110;-4.158;2022-07-17T01:18:12;101985.19;;;22.81;41.20
17649;BME280;8943;51.110;-4.158;2022-07-17T01:20:42;101974.63;;;22.78;40.87
17649;BME280;8943;51.110;-4.158;2022-07-17T01:23:13;101987.91;;;22.81;40.74
17649;BME280;8943;51.110;-4.158;2022-07-17T01:25:42;101982.78;;;22.78;40.63
17649;BME280;8943;51.110;-4.158;2022-07-17T01:28:11;101987.53;;;22.76;40.62
17649;BME280;8943;51.110;-4.158;2022-07-17T01:30:45;101980.88;;;22.71;40.96
17649;BME280;8943;51.110;-4.158;2022-07-17T01:33:14;101984.75;;;22.68;41.03
17649;BME280;8943;51.110;-4.158;2022-07-17T01:35:43;101985.78;;;22.67;40.88
17649;BME280;8943;51.110;-4.158;2022-07-17T01:38:13;101976.25;;;22.63;41.13
17649;BME280;8943;51.110;-4.158;2022-07-17T01:40:41;101982.03;;;22.60;40.94
17649;BME280;8943;51.110;-4.158;2022-07-17T01:43:10;101977.06;;;22.55;41.17
17649;BME280;8943;51.110;-4.158;2022-07-17T01:45:38;101975.34;;;22.54;41.10
17649;BME280;8943;51.110;-4.158;2022-07-17T01:48:06;101972.78;;;22.53;41.10
17649;BME280;8943;51.110;-4.158;2022-07-17T01:50:35;101978.16;;;22.45;41.26
17649;BME280;8943;51.110;-4.158;2022-07-17T01:53:03;101973.75;;;22.44;41.27
17649;BME280;8943;51.110;-4.158;2022-07-17T01:55:33;101978.81;;;22.39;41.45
17649;BME280;8943;51.110;-4.158;2022-07-17T01:58:01;101975.72;;;22.33;41.31
17649;BME280;8943;51.110;-4.158;2022-07-17T02:00:29;101986.59;;;22.33;41.45
17649;BME280;8943;51.110;-4.158;2022-07-17T02:02:57;101985.06;;;22.31;41.33
17649;BME280;8943;51.110;-4.158;2022-07-17T02:05:25;101991.09;;;22.25;41.44
17649;BME280;8943;51.110;-4.158;2022-07-17T02:07:53;101989.56;;;22.22;41.29
17649;BME280;8943;51.110;-4.158;2022-07-17T02:10:22;101984.13;;;22.22;41.28
17649;BME280;8943;51.110;-4.158;2022-07-17T02:12:51;101984.13;;;22.22;41.54
17649;BME280;8943;51.110;-4.158;2022-07-17T02:15:19;101980.41;;;22.23;41.50
17649;BME280;8943;51.110;-4.158;2022-07-17T02:17:48;101983.81;;;22.25;41.63
17649;BME280;8943;51.110;-4.158;2022-07-17T02:20:16;101980.47;;;22.31;41.46
17649;BME280;8943;51.110;-4.158;2022-07-17T02:22:45;101976.91;;;22.31;41.23
17649;BME280;8943;51.110;-4.158;2022-07-17T02:25:13;101973.47;;;22.29;41.28
17649;BME280;8943;51.110;-4.158;2022-07-17T02:27:42;101972.69;;;22.36;41.29
17649;BME280;8943;51.110;-4.158;2022-07-17T02:30:14;101971.69;;;22.38;41.07
17649;BME280;8943;51.110;-4.158;2022-07-17T02:32:43;101976.63;;;22.42;41.04
17649;BME280;8943;51.110;-4.158;2022-07-17T02:35:13;101969.34;;;22.43;40.77
17649;BME280;8943;51.110;-4.158;2022-07-17T02:37:41;101975.31;;;22.46;40.98
17649;BME280;8943;51.110;-4.158;2022-07-17T02:40:11;101970.00;;;22.45;40.94
17649;BME280;8943;51.110;-4.158;2022-07-17T02:42:39;101968.69;;;22.49;40.96
17649;BME280;8943;51.110;-4.158;2022-07-17T02:45:09;101977.00;;;22.47;41.11
17649;BME280;8943;51.110;-4.158;2022-07-17T02:47:38;101969.41;;;22.51;40.51
17649;BME280;8943;51.110;-4.158;2022-07-17T02:50:08;101979.25;;;22.52;40.73
17649;BME280;8943;51.110;-4.158;2022-07-17T02:52:37;101975.19;;;22.56;40.51
17649;BME280;8943;51.110;-4.158;2022-07-17T02:55:06;101973.31;;;22.56;40.79
17649;BME280;8943;51.110;-4.158;2022-07-17T02:57:34;101965.34;;;22.55;40.37
17649;BME280;8943;51.110;-4.158;2022-07-17T03:00:03;101960.97;;;22.62;40.47
17649;BME280;8943;51.110;-4.158;2022-07-17T03:02:32;101960.97;;;22.62;40.46
17649;BME280;8943;51.110;-4.158;2022-07-17T03:05:02;101954.50;;;22.63;40.41
17649;BME280;8943;51.110;-4.158;2022-07-17T03:07:30;101961.63;;;22.64;40.47
17649;BME280;8943;51.110;-4.158;2022-07-17T03:09:58;101954.19;;;22.66;40.38
17649;BME280;8943;51.110;-4.158;2022-07-17T03:12:26;101958.25;;;22.62;40.47
17649;BME280;8943;51.110;-4.158;2022-07-17T03:14:54;101955.53;;;22.62;40.48
17649;BME280;8943;51.110;-4.158;2022-07-17T03:17:23;101947.69;;;22.59;40.50
17649;BME280;8943;51.110;-4.158;2022-07-17T03:19:52;101948.72;;;22.58;40.36
17649;BME280;8943;51.110;-4.158;2022-07-17T03:22:21;101940.56;;;22.58;40.25
17649;BME280;8943;51.110;-4.158;2022-07-17T03:24:50;101939.53;;;22.59;40.05
17649;BME280;8943;51.110;-4.158;2022-07-17T03:27:18;101935.97;;;22.58;40.43
17649;BME280;8943;51.110;-4.158;2022-07-17T03:29:46;101936.50;;;22.62;40.17
17649;BME280;8943;51.110;-4.158;2022-07-17T03:32:14;101922.25;;;22.60;40.22
17649;BME280;8943;51.110;-4.158;2022-07-17T03:34:43;101937.19;;;22.64;40.03
17649;BME280;8943;51.110;-4.158;2022-07-17T03:37:11;101924.63;;;22.63;40.20
17649;BME280;8943;51.110;-4.158;2022-07-17T03:39:41;101921.06;;;22.62;39.78
17649;BME280;8943;51.110;-4.158;2022-07-17T03:42:09;101929.75;;;22.66;40.08
17649;BME280;8943;51.110;-4.158;2022-07-17T03:44:37;101928.19;;;22.63;39.90
17649;BME280;8943;51.110;-4.158;2022-07-17T03:47:06;101929.03;;;22.64;40.06
17649;BME280;8943;51.110;-4.158;2022-07-17T03:49:34;101922.91;;;22.62;40.04
17649;BME280;8943;51.110;-4.158;2022-07-17T03:52:02;101921.06;;;22.62;39.94
17649;BME280;8943;51.110;-4.158;2022-07-17T03:54:30;101907.66;;;22.61;39.86
17649;BME280;8943;51.110;-4.158;2022-07-17T03:57:00;101908.50;;;22.61;40.07
17649;BME280;8943;51.110;-4.158;2022-07-17T03:59:28;101902.22;;;22.61;39.84
17649;BME280;8943;51.110;-4.158;2022-07-17T04:01:56;101908.50;;;22.61;39.96
17649;BME280;8943;51.110;-4.158;2022-07-17T04:04:24;101890.63;;;22.59;39.88
17649;BME280;8943;51.110;-4.158;2022-07-17T04:06:52;101896.25;;;22.57;40.05
17649;BME280;8943;51.110;-4.158;2022-07-17T04:09:21;101901.38;;;22.60;39.76
17649;BME280;8943;51.110;-4.158;2022-07-17T04:11:49;101884.22;;;22.60;39.85
17649;BME280;8943;51.110;-4.158;2022-07-17T04:14:18;101875.34;;;22.58;39.97
17649;BME280;8943;51.110;-4.158;2022-07-17T04:16:46;101878.41;;;22.55;40.20
17649;BME280;8943;51.110;-4.158;2022-07-17T04:19:15;101874.34;;;22.59;40.02
17649;BME280;8943;51.110;-4.158;2022-07-17T04:21:43;101869.06;;;22.57;40.31
17649;BME280;8943;51.110;-4.158;2022-07-17T04:24:11;101871.97;;;22.56;40.36
17649;BME280;8943;51.110;-4.158;2022-07-17T04:26:39;101873.34;;;22.60;40.37
17649;BME280;8943;51.110;-4.158;2022-07-17T04:29:08;101870.47;;;22.61;40.43
17649;BME280;8943;51.110;-4.158;2022-07-17T04:31:38;101881.84;;;22.65;40.73
17649;BME280;8943;51.110;-4.158;2022-07-17T04:34:06;101875.22;;;22.68;40.56
17649;BME280;8943;51.110;-4.158;2022-07-17T04:36:34;101873.88;;;22.72;40.44
17649;BME280;8943;51.110;-4.158;2022-07-17T04:39:02;101857.75;;;22.70;40.56
17649;BME280;8943;51.110;-4.158;2022-07-17T04:41:30;101857.78;;;22.78;40.39
17649;BME280;8943;51.110;-4.158;2022-07-17T04:43:59;101851.00;;;22.82;40.49
17649;BME280;8943;51.110;-4.158;2022-07-17T04:46:27;101861.00;;;22.82;40.61
17649;BME280;8943;51.110;-4.158;2022-07-17T04:48:57;101847.50;;;22.90;40.36
17649;BME280;8943;51.110;-4.158;2022-07-17T04:51:25;101847.00;;;22.95;40.61
17649;BME280;8943;51.110;-4.158;2022-07-17T04:53:54;101849.72;;;22.95;40.57
17649;BME280;8943;51.110;-4.158;2022-07-17T04:56:23;101858.72;;;23.03;40.64
17649;BME280;8943;51.110;-4.158;2022-07-17T04:58:51;101853.78;;;23.07;40.51
17649;BME280;8943;51.110;-4.158;2022-07-17T05:01:19;101854.00;;;23.13;40.38
17649;BME280;8943;51.110;-4.158;2022-07-17T05:03:48;101852.78;;;23.16;40.51
17649;BME280;8943;51.110;-4.158;2022-07-17T05:06:17;101844.31;;;23.19;40.60
17649;BME280;8943;51.110;-4.158;2022-07-17T05:08:45;101852.63;;;23.26;40.38
17649;BME280;8943;51.110;-4.158;2022-07-17T05:11:13;101857.25;;;23.33;40.03
17649;BME280;8943;51.110;-4.158;2022-07-17T05:13:41;101849.75;;;23.35;40.50
17649;BME280;8943;51.110;-4.158;2022-07-17T05:16:10;101857.06;;;23.35;40.13
17649;BME280;8943;51.110;-4.158;2022-07-17T05:18:38;101855.22;;;23.44;40.00
17649;BME280;8943;51.110;-4.158;2022-07-17T05:21:06;101867.94;;;23.51;40.03
17649;BME280;8943;51.110;-4.158;2022-07-17T05:23:36;101863.03;;;23.55;39.85
17649;BME280;8943;51.110;-4.158;2022-07-17T05:26:04;101855.38;;;23.58;39.83
17649;BME280;8943;51.110;-4.158;2022-07-17T05:28:33;101866.09;;;23.60;39.74
17649;BME280;8943;51.110;-4.158;2022-07-17T05:31:04;101862.03;;;23.64;39.74
17649;BME280;8943;51.110;-4.158;2022-07-17T05:33:33;101865.75;;;23.71;39.23
17649;BME280;8943;51.110;-4.158;2022-07-17T05:36:01;101861.34;;;23.70;39.39
17649;BME280;8943;51.110;-4.158;2022-07-17T05:38:29;101852.84;;;23.73;39.96
17649;BME280;8943;51.110;-4.158;2022-07-17T05:40:59;101862.38;;;23.77;39.86
17649;BME280;8943;51.110;-4.158;2022-07-17T05:43:27;101861.88;;;23.82;39.59
17649;BME280;8943;51.110;-4.158;2022-07-17T05:45:55;101859.63;;;23.85;39.44
17649;BME280;8943;51.110;-4.158;2022-07-17T05:48:24;101865.44;;;23.82;39.57
17649;BME280;8943;51.110;-4.158;2022-07-17T05:50:53;101867.28;;;23.90;39.51
17649;BME280;8943;51.110;-4.158;2022-07-17T05:53:21;101872.91;;;23.88;39.74
17649;BME280;8943;51.110;-4.158;2022-07-17T05:55:49;101865.91;;;23.94;39.70
17649;BME280;8943;51.110;-4.158;2022-07-17T05:58:19;101867.97;;;23.92;39.71
17649;BME280;8943;51.110;-4.158;2022-07-17T06:00:47;101871.50;;;24.01;39.62
17649;BME280;8943;51.110;-4.158;2022-07-17T06:03:16;101873.06;;;24.03;39.37
17649;BME280;8943;51.110;-4.158;2022-07-17T06:05:45;101877.13;;;24.07;39.23
17649;BME280;8943;51.110;-4.158;2022-07-17T06:08:13;101864.03;;;24.03;39.78
17649;BME280;8943;51.110;-4.158;2022-07-17T06:10:41;101866.06;;;24.09;39.46
17649;BME280;8943;51.110;-4.158;2022-07-17T06:13:09;101864.38;;;24.08;39.58
17649;BME280;8943;51.110;-4.158;2022-07-17T06:15:39;101868.06;;;24.15;39.46
17649;BME280;8943;51.110;-4.158;2022-07-17T06:18:09;101877.97;;;24.16;39.65
17649;BME280;8943;51.110;-4.158;2022-07-17T06:20:37;101878.13;;;24.23;39.49
17649;BME280;8943;51.110;-4.158;2022-07-17T06:23:05;101872.16;;;24.27;39.65
17649;BME280;8943;51.110;-4.158;2022-07-17T06:25:33;101880.31;;;24.27;39.80
17649;BME280;8943;51.110;-4.158;2022-07-17T06:28:02;101881.50;;;24.25;39.72
17649;BME280;8943;51.110;-4.158;2022-07-17T06:30:30;101877.59;;;24.35;39.49
17649;BME280;8943;51.110;-4.158;2022-07-17T06:33:00;101883.72;;;24.46;39.23
17649;BME280;8943;51.110;-4.158;2022-07-17T06:35:28;101881.31;;;24.43;39.65
17649;BME280;8943;51.110;-4.158;2022-07-17T06:37:57;101870.56;;;24.49;39.29
17649;BME280;8943;51.110;-4.158;2022-07-17T06:40:25;101874.28;;;24.56;39.54
17649;BME280;8943;51.110;-4.158;2022-07-17T06:42:54;101865.59;;;24.61;39.43
17649;BME280;8943;51.110;-4.158;2022-07-17T06:45:22;101868.63;;;24.66;39.34
17649;BME280;8943;51.110;-4.158;2022-07-17T06:47:51;101867.94;;;24.64;39.37
17649;BME280;8943;51.110;-4.158;2022-07-17T06:50:20;101869.97;;;24.70;39.17
17649;BME280;8943;51.110;-4.158;2022-07-17T06:52:49;101867.56;;;24.75;39.01
17649;BME280;8943;51.110;-4.158;2022-07-17T06:55:17;101865.50;;;24.77;39.26
17649;BME280;8943;51.110;-4.158;2022-07-17T06:57:45;101858.00;;;24.79;39.39
17649;BME280;8943;51.110;-4.158;2022-07-17T07:00:14;101849.13;;;24.85;39.13
17649;BME280;8943;51.110;-4.158;2022-07-17T07:02:45;101836.44;;;24.92;39.10
17649;BME280;8943;51.110;-4.158;2022-07-17T07:05:13;101838.13;;;24.93;38.88
17649;BME280;8943;51.110;-4.158;2022-07-17T07:07:43;101840.81;;;25.02;39.02
17649;BME280;8943;51.110;-4.158;2022-07-17T07:10:11;101845.56;;;25.08;39.14
17649;BME280;8943;51.110;-4.158;2022-07-17T07:12:40;101847.09;;;25.10;39.15
17649;BME280;8943;51.110;-4.158;2022-07-17T07:15:09;101848.56;;;25.21;39.11
17649;BME280;8943;51.110;-4.158;2022-07-17T07:17:39;101851.25;;;25.29;38.87
17649;BME280;8943;51.110;-4.158;2022-07-17T07:20:08;101854.75;;;25.38;38.76
17649;BME280;8943;51.110;-4.158;2022-07-17T07:22:36;101856.44;;;25.39;38.77
17649;BME280;8943;51.110;-4.158;2022-07-17T07:25:08;101847.63;;;25.52;38.71
17649;BME280;8943;51.110;-4.158;2022-07-17T07:27:36;101856.00;;;25.50;38.81
17649;BME280;8943;51.110;-4.158;2022-07-17T07:30:05;101862.06;;;25.60;38.90
17649;BME280;8943;51.110;-4.158;2022-07-17T07:32:37;101858.13;;;25.63;38.99
17649;BME280;8943;51.110;-4.158;2022-07-17T07:35:06;101867.94;;;25.72;38.73
17649;BME280;8943;51.110;-4.158;2022-07-17T07:37:35;101866.84;;;25.81;39.06
17649;BME280;8943;51.110;-4.158;2022-07-17T07:40:04;101851.91;;;25.92;38.79
17649;BME280;8943;51.110;-4.158;2022-07-17T07:42:35;101862.09;;;25.98;38.97
17649;BME280;8943;51.110;-4.158;2022-07-17T07:45:04;101863.88;;;26.06;39.04
17649;BME280;8943;51.110;-4.158;2022-07-17T07:47:40;101869.94;;;26.16;38.83
17649;BME280;8943;51.110;-4.158;2022-07-17T07:50:09;101866.91;;;26.26;38.60
17649;BME280;8943;51.110;-4.158;2022-07-17T07:52:39;101865.75;;;26.35;38.66
17649;BME280;8943;51.110;-4.158;2022-07-17T07:55:08;101861.19;;;26.50;38.58
17649;BME280;8943;51.110;-4.158;2022-07-17T07:57:44;101855.44;;;26.60;38.54
17649;BME280;8943;51.110;-4.158;2022-07-17T08:00:13;101861.53;;;26.62;38.73
17649;BME280;8943;51.110;-4.158;2022-07-17T08:02:42;101870.66;;;26.69;38.76
17649;BME280;8943;51.110;-4.158;2022-07-17T08:05:10;101870.19;;;26.80;38.43
17649;BME280;8943;51.110;-4.158;2022-07-17T08:07:39;101866.03;;;26.84;38.53
17649;BME280;8943;51.110;-4.158;2022-07-17T08:10:07;101861.47;;;26.91;38.54
17649;BME280;8943;51.110;-4.158;2022-07-17T08:12:36;101857.59;;;27.01;38.44
17649;BME280;8943;51.110;-4.158;2022-07-17T08:15:15;101862.09;;;27.08;38.38
17649;BME280;8943;51.110;-4.158;2022-07-17T08:17:44;101856.16;;;27.19;38.17
17649;BME280;8943;51.110;-4.158;2022-07-17T08:20:13;101851.78;;;27.25;38.23
17649;BME280;8943;51.110;-4.158;2022-07-17T08:22:42;101857.78;;;27.35;38.14
17649;BME280;8943;51.110;-4.158;2022-07-17T08:25:30;101861.59;;;27.41;38.24
17649;BME280;8943;51.110;-4.158;2022-07-17T08:28:00;101864.44;;;27.48;38.04
17649;BME280;8943;51.110;-4.158;2022-07-17T08:30:30;101858.16;;;27.54;38.09
17649;BME280;8943;51.110;-4.158;2022-07-17T08:33:02;101853.19;;;27.64;37.83
17649;BME280;8943;51.110;-4.158;2022-07-17T08:35:31;101834.47;;;27.67;37.79
17649;BME280;8943;51.110;-4.158;2022-07-17T08:37:59;101844.66;;;27.74;37.63
17649;BME280;8943;51.110;-4.158;2022-07-17T08:40:31;101845.13;;;27.77;37.55
17649;BME280;8943;51.110;-4.158;2022-07-17T08:43:01;101849.13;;;27.81;37.45
17649;BME280;8943;51.110;-4.158;2022-07-17T08:45:32;101852.91;;;27.80;37.37
17649;BME280;8943;51.110;-4.158;2022-07-17T08:48:01;101852.53;;;27.83;37.49
17649;BME280;8943;51.110;-4.158;2022-07-17T08:50:32;101854.25;;;27.91;37.53
17649;BME280;8943;51.110;-4.158;2022-07-17T08:53:02;101851.13;;;27.94;37.14
17649;BME280;8943;51.110;-4.158;2022-07-17T08:55:31;101848.19;;;27.95;37.21
17649;BME280;8943;51.110;-4.158;2022-07-17T08:58:00;101855.19;;;28.05;36.97
17649;BME280;8943;51.110;-4.158;2022-07-17T09:00:28;101859.47;;;28.14;36.99
17649;BME280;8943;51.110;-4.158;2022-07-17T09:03:00;101866.72;;;28.28;37.62
17649;BME280;8943;51.110;-4.158;2022-07-17T09:05:31;101859.00;;;28.38;37.18
17649;BME280;8943;51.110;-4.158;2022-07-17T09:07:59;101868.78;;;28.47;36.89
17649;BME280;8943;51.110;-4.158;2022-07-17T09:10:36;101864.16;;;28.55;36.62
17649;BME280;8943;51.110;-4.158;2022-07-17T09:13:16;101858.50;;;28.63;36.55
17649;BME280;8943;51.110;-4.158;2022-07-17T09:15:46;101867.19;;;28.73;36.39
17649;BME280;8943;51.110;-4.158;2022-07-17T09:18:16;101867.03;;;28.88;36.21
17649;BME280;8943;51.110;-4.158;2022-07-17T09:20:47;101866.88;;;28.96;36.00
17649;BME280;8943;51.110;-4.158;2022-07-17T09:23:17;101866.94;;;29.09;35.94
17649;BME280;8943;51.110;-4.158;2022-07-17T09:25:47;101870.75;;;29.15;35.76
17649;BME280;8943;51.110;-4.158;2022-07-17T09:28:17;101875.22;;;29.29;35.49
17649;BME280;8943;51.110;-4.158;2022-07-17T09:30:50;101867.59;;;29.38;35.18
17649;BME280;8943;51.110;-4.158;2022-07-17T09:33:22;101883.47;;;29.49;35.23
17649;BME280;8943;51.110;-4.158;2022-07-17T09:35:53;101882.03;;;29.60;35.04
17649;BME280;8943;51.110;-4.158;2022-07-17T09:38:29;101883.50;;;29.69;34.89
17649;BME280;8943;51.110;-4.158;2022-07-17T09:41:03;101886.47;;;29.87;34.74
17649;BME280;8943;51.110;-4.158;2022-07-17T09:43:44;101885.19;;;30.03;34.63
17649;BME280;8943;51.110;-4.158;2022-07-17T09:46:18;101884.97;;;30.18;34.33
17649;BME280;8943;51.110;-4.158;2022-07-17T09:48:51;101895.31;;;30.36;34.06
17649;BME280;8943;51.110;-4.158;2022-07-17T09:51:22;101895.66;;;30.52;33.88
17649;BME280;8943;51.110;-4.158;2022-07-17T09:53:52;101900.06;;;30.67;33.80
17649;BME280;8943;51.110;-4.158;2022-07-17T09:56:23;101901.31;;;30.77;33.47
17649;BME280;8943;51.110;-4.158;2022-07-17T09:58:53;101890.09;;;30.79;33.47
17649;BME280;8943;51.110;-4.158;2022-07-17T10:01:23;101893.03;;;30.84;33.24
17649;BME280;8943;51.110;-4.158;2022-07-17T10:03:53;101887.53;;;30.84;33.50
17649;BME280;8943;51.110;-4.158;2022-07-17T10:06:24;101885.41;;;30.86;33.10
17649;BME280;8943;51.110;-4.158;2022-07-17T10:08:53;101894.72;;;30.85;33.24
17649;BME280;8943;51.110;-4.158;2022-07-17T10:11:23;101888.38;;;30.85;32.90
17649;BME280;8943;51.110;-4.158;2022-07-17T10:13:55;101897.69;;;30.90;33.17
17649;BME280;8943;51.110;-4.158;2022-07-17T10:16:25;101884.53;;;30.92;32.95
17649;BME280;8943;51.110;-4.158;2022-07-17T10:18:57;101895.28;;;31.00;32.79
17649;BME280;8943;51.110;-4.158;2022-07-17T10:21:27;101888.47;;;31.10;32.81
17649;BME280;8943;51.110;-4.158;2022-07-17T10:24:09;101876.56;;;31.16;32.55
17649;BME280;8943;51.110;-4.158;2022-07-17T10:26:39;101884.13;;;31.27;32.25
17649;BME280;8943;51.110;-4.158;2022-07-17T10:29:29;101880.50;;;31.33;32.24
17649;BME280;8943;51.110;-4.158;2022-07-17T10:31:58;101868.78;;;31.44;32.25
17649;BME280;8943;51.110;-4.158;2022-07-17T10:34:40;101880.81;;;31.50;32.21
17649;BME280;8943;51.110;-4.158;2022-07-17T10:37:20;101877.31;;;31.61;31.85
17649;BME280;8943;51.110;-4.158;2022-07-17T10:39:56;101867.47;;;31.72;31.82
17649;BME280;8943;51.110;-4.158;2022-07-17T10:42:55;101872.69;;;31.80;31.77
17649;BME280;8943;51.110;-4.158;2022-07-17T10:45:26;101874.53;;;31.93;31.44
17649;BME280;8943;51.110;-4.158;2022-07-17T10:47:57;101874.38;;;32.06;31.23
17649;BME280;8943;51.110;-4.158;2022-07-17T10:50:30;101865.81;;;32.14;31.19
17649;BME280;8943;51.110;-4.158;2022-07-17T10:53:11;101872.13;;;32.21;30.91
17649;BME280;8943;51.110;-4.158;2022-07-17T10:55:48;101862.63;;;32.36;31.04
17649;BME280;8943;51.110;-4.158;2022-07-17T10:58:22;101870.16;;;32.47;30.71
17649;BME280;8943;51.110;-4.158;2022-07-17T11:01:03;101873.47;;;32.55;30.59
17649;BME280;8943;51.110;-4.158;2022-07-17T11:03:36;101875.59;;;32.72;30.32
17649;BME280;8943;51.110;-4.158;2022-07-17T11:06:24;101878.03;;;32.80;30.35
17649;BME280;8943;51.110;-4.158;2022-07-17T11:08:56;101888.69;;;32.95;29.85
17649;BME280;8943;51.110;-4.158;2022-07-17T11:11:35;101866.50;;;33.01;29.83
17649;BME280;8943;51.110;-4.158;2022-07-17T11:14:09;101869.66;;;33.17;29.46
17649;BME280;8943;51.110;-4.158;2022-07-17T11:16:44;101871.63;;;33.28;29.45
17649;BME280;8943;51.110;-4.158;2022-07-17T11:19:19;101869.31;;;33.43;29.37
17649;BME280;8943;51.110;-4.158;2022-07-17T11:21:50;101870.91;;;33.63;29.45
17649;BME280;8943;51.110;-4.158;2022-07-17T11:24:19;101880.63;;;33.77;28.76
17649;BME280;8943;51.110;-4.158;2022-07-17T11:26:50;101887.59;;;33.91;28.34
17649;BME280;8943;51.110;-4.158;2022-07-17T11:29:19;101888.50;;;34.03;28.08
17649;BME280;8943;51.110;-4.158;2022-07-17T11:31:54;101881.53;;;34.13;28.02
17649;BME280;8943;51.110;-4.158;2022-07-17T11:34:24;101880.75;;;34.29;27.73
17649;BME280;8943;51.110;-4.158;2022-07-17T11:37:00;101871.59;;;34.40;27.42
17649;BME280;8943;51.110;-4.158;2022-07-17T11:39:37;101872.34;;;34.47;26.75
17649;BME280;8943;51.110;-4.158;2022-07-17T11:42:09;101876.16;;;34.58;26.64
17649;BME280;8943;51.110;-4.158;2022-07-17T11:44:37;101879.13;;;34.68;25.99
17649;BME280;8943;51.110;-4.158;2022-07-17T11:47:06;101880.44;;;34.77;25.71
17649;BME280;8943;51.110;-4.158;2022-07-17T11:49:36;101876.44;;;34.85;25.77
17649;BME280;8943;51.110;-4.158;2022-07-17T11:52:09;101877.72;;;34.94;25.77
17649;BME280;8943;51.110;-4.158;2022-07-17T11:54:45;101864.13;;;35.04;25.31
17649;BME280;8943;51.110;-4.158;2022-07-17T11:57:13;101857.31;;;35.12;25.21
17649;BME280;8943;51.110;-4.158;2022-07-17T11:59:42;101858.94;;;35.25;25.20
17649;BME280;8943;51.110;-4.158;2022-07-17T12:02:12;101858.84;;;35.37;24.72
17649;BME280;8943;51.110;-4.158;2022-07-17T12:04:51;101857.84;;;35.43;24.49
17649;BME280;8943;51.110;-4.158;2022-07-17T12:07:22;101857.19;;;35.52;24.36
17649;BME280;8943;51.110;-4.158;2022-07-17T12:09:52;101847.06;;;35.58;23.99
17649;BME280;8943;51.110;-4.158;2022-07-17T12:12:22;101855.19;;;35.65;24.07
17649;BME280;8943;51.110;-4.158;2022-07-17T12:14:50;101847.53;;;35.72;23.91
17649;BME280;8943;51.110;-4.158;2022-07-17T12:17:20;101837.59;;;35.76;23.83
17649;BME280;8943;51.110;-4.158;2022-07-17T12:19:50;101847.44;;;35.83;23.69
17649;BME280;8943;51.110;-4.158;2022-07-17T12:22:21;101845.69;;;35.94;23.39
17649;BME280;8943;51.110;-4.158;2022-07-17T12:24:49;101844.50;;;36.07;23.36
17649;BME280;8943;51.110;-4.158;2022-07-17T12:27:18;101834.38;;;36.18;23.34
17649;BME280;8943;51.110;-4.158;2022-07-17T12:29:46;101836.16;;;36.29;22.76
17649;BME280;8943;51.110;-4.158;2022-07-17T12:32:15;101827.69;;;36.41;22.49
17649;BME280;8943;51.110;-4.158;2022-07-17T12:34:45;101834.84;;;36.53;22.52
17649;BME280;8943;51.110;-4.158;2022-07-17T12:37:15;101830.84;;;36.66;22.74
17649;BME280;8943;51.110;-4.158;2022-07-17T12:39:46;101820.00;;;36.70;21.63
17649;BME280;8943;51.110;-4.158;2022-07-17T12:42:14;101817.38;;;36.80;21.44
17649;BME280;8943;51.110;-4.158;2022-07-17T12:44:44;101815.22;;;36.87;21.82
17649;BME280;8943;51.110;-4.158;2022-07-17T12:47:12;101809.47;;;36.94;21.59
17649;BME280;8943;51.110;-4.158;2022-07-17T12:49:40;101814.59;;;37.07;21.44
17649;BME280;8943;51.110;-4.158;2022-07-17T12:52:09;101821.41;;;37.21;21.41
17649;BME280;8943;51.110;-4.158;2022-07-17T12:54:37;101809.31;;;37.37;21.19
17649;BME280;8943;51.110;-4.158;2022-07-17T12:57:07;101803.00;;;37.47;21.03
17649;BME280;8943;51.110;-4.158;2022-07-17T12:59:35;101803.38;;;37.61;20.59
17649;BME280;8943;51.110;-4.158;2022-07-17T13:02:03;101798.44;;;37.68;20.75
17649;BME280;8943;51.110;-4.158;2022-07-17T13:04:32;101808.91;;;37.93;20.57